Time;durP1;ratioP1;P1;durP2;ratioP2;P2;SDS_P1;SDS_P2;PMS_P1;PMS_P2;Temp;Humidity;BMP_temperature;BMP_pressure;BME280_temperature;BME280_humidity;BME280_pressure;Samples;Min_cycle;Max_cycle;Signal;HPM_P1;HPM_P2
2023/07/13 00:02:16;;;;;;;6.85;0.43;;;17.40;99.90;;;;;;4997371;28;20022;-75
2023/07/13 00:04:42;;;;;;;3.08;0.63;;;17.20;99.90;;;;;;5014969;28;20498;-75
2023/07/13 00:07:08;;;;;;;3.97;0.40;;;17.30;99.90;;;;;;5014757;28;20026;-75
2023/07/13 00:09:34;;;;;;;5.88;0.50;;;17.20;99.90;;;;;;5015374;28;20137;-75
2023/07/13 00:12:01;;;;;;;9.68;0.93;;;17.20;99.90;;;;;;5015119;28;20023;-74
2023/07/13 00:14:29;;;;;;;10.32;0.50;;;17.20;99.90;;;;;;5014716;28;20022;-74
2023/07/13 00:16:55;;;;;;;6.78;0.98;;;17.20;99.90;;;;;;5014696;28;20022;-74
2023/07/13 00:19:20;;;;;;;9.52;0.20;;;17.20;99.90;;;;;;5014599;28;20029;-74
2023/07/13 00:21:47;;;;;;;8.95;0.50;;;17.30;99.90;;;;;;5014759;28;20126;-74
2023/07/13 00:24:15;;;;;;;6.13;0.32;;;17.30;99.90;;;;;;5015108;28;20028;-75
2023/07/13 00:26:45;;;;;;;6.75;0.35;;;17.20;99.90;;;;;;5014592;28;20080;-74
2023/07/13 00:29:11;;;;;;;3.90;0.32;;;17.20;99.90;;;;;;5015060;28;20018;-74
2023/07/13 00:31:37;;;;;;;2.88;0.20;;;17.20;99.90;;;;;;4996589;28;20034;-74
2023/07/13 00:34:03;;;;;;;5.88;0.55;;;17.20;99.90;;;;;;4996748;28;20025;-74
2023/07/13 00:36:30;;;;;;;9.10;0.40;;;17.10;99.90;;;;;;5014832;28;20033;-74
2023/07/13 00:38:55;;;;;;;7.15;0.22;;;17.10;99.90;;;;;;5014279;28;20509;-74
2023/07/13 00:41:21;;;;;;;3.53;0.10;;;17.10;99.90;;;;;;4996547;28;20025;-74
2023/07/13 00:43:47;;;;;;;6.53;1.35;;;17.10;99.90;;;;;;5013983;28;20038;-74
2023/07/13 00:46:33;;;;;;;5.60;0.43;;;17.10;99.90;;;;;;5014121;28;20062;-74
2023/07/13 00:49:05;;;;;;;7.50;0.10;;;17.00;99.90;;;;;;5014035;28;20030;-74
2023/07/13 00:51:45;;;;;;;0.98;0.08;;;17.00;99.90;;;;;;5013836;28;20029;-75
2023/07/13 00:54:14;;;;;;;3.28;0.57;;;17.00;99.90;;;;;;5013726;28;20030;-75
2023/07/13 00:56:43;;;;;;;8.30;0.95;;;16.90;99.90;;;;;;5014243;28;20076;-74
2023/07/13 00:59:11;;;;;;;4.10;0.17;;;16.80;99.90;;;;;;4996348;28;20497;-75
2023/07/13 01:01:37;;;;;;;3.70;0.45;;;16.80;99.90;;;;;;4996403;28;20441;-74
2023/07/13 01:04:03;;;;;;;5.75;0.38;;;16.70;99.90;;;;;;4996126;28;20095;-75
2023/07/13 01:06:29;;;;;;;2.75;0.60;;;16.60;99.90;;;;;;5013819;28;20018;-75
2023/07/13 01:08:57;;;;;;;4.63;0.10;;;16.60;99.90;;;;;;4996252;28;20414;-75
2023/07/13 01:11:23;;;;;;;2.45;0.00;;;16.60;99.90;;;;;;5013642;28;20031;-74
2023/07/13 01:13:49;;;;;;;3.85;0.32;;;16.60;99.90;;;;;;5013705;28;20026;-75
2023/07/13 01:16:23;;;;;;;6.80;0.47;;;16.50;99.90;;;;;;5014225;28;20097;-75
2023/07/13 01:18:49;;;;;;;13.25;0.68;;;16.50;99.90;;;;;;5013664;28;20050;-75
2023/07/13 01:21:16;;;;;;;4.97;0.25;;;;;;;;;;5013470;28;20111;-75
2023/07/13 01:23:42;;;;;;;6.43;0.68;;;16.40;99.90;;;;;;4995932;28;20034;-75
2023/07/13 01:26:07;;;;;;;8.93;0.45;;;16.40;99.90;;;;;;5013580;28;20389;-75
2023/07/13 01:28:36;;;;;;;3.30;0.75;;;16.50;99.90;;;;;;5013549;28;20026;-74
2023/07/13 01:31:03;;;;;;;4.30;0.28;;;16.50;99.90;;;;;;5013650;28;20025;-75
2023/07/13 01:33:30;;;;;;;6.38;0.47;;;16.40;99.90;;;;;;5013469;28;20024;-75
2023/07/13 01:35:57;;;;;;;5.43;0.20;;;16.40;99.90;;;;;;5013335;28;20026;-75
2023/07/13 01:38:24;;;;;;;3.88;0.30;;;16.40;99.90;;;;;;5013825;28;20458;-74
2023/07/13 01:40:51;;;;;;;3.50;0.10;;;16.40;99.90;;;;;;4995826;28;20022;-75
2023/07/13 01:43:18;;;;;;;3.60;0.47;;;16.30;99.90;;;;;;5013105;28;20037;-75
2023/07/13 01:45:44;;;;;;;13.27;1.13;;;16.30;99.90;;;;;;5013388;28;20102;-74
2023/07/13 01:48:10;;;;;;;3.00;0.00;;;16.30;99.90;;;;;;4995558;28;20030;-75
2023/07/13 01:50:36;;;;;;;12.80;0.85;;;16.30;99.90;;;;;;4995432;28;20026;-75
2023/07/13 01:53:02;;;;;;;7.88;0.73;;;16.30;99.90;;;;;;5013239;28;20032;-75
2023/07/13 01:55:29;;;;;;;3.42;0.40;;;16.20;99.90;;;;;;4995594;28;20018;-75
2023/07/13 01:57:54;;;;;;;7.38;0.60;;;16.30;99.90;;;;;;5013212;28;20024;-74
2023/07/13 02:00:20;;;;;;;5.38;0.30;;;16.20;99.90;;;;;;5013169;28;20417;-72
2023/07/13 02:02:46;;;;;;;3.10;0.30;;;16.20;99.90;;;;;;5013547;28;20029;-74
2023/07/13 02:05:12;;;;;;;4.10;0.00;;;16.10;99.90;;;;;;5014192;28;20033;-75
2023/07/13 02:07:38;;;;;;;6.35;0.73;;;16.10;99.90;;;;;;5017484;28;20485;-74
2023/07/13 02:10:05;;;;;;;4.15;0.10;;;16.10;99.90;;;;;;5016900;28;20026;-74
2023/07/13 02:12:31;;;;;;;3.58;0.35;;;16.10;99.90;;;;;;5016984;28;20120;-74
2023/07/13 02:14:56;;;;;;;7.47;0.88;;;16.00;99.90;;;;;;5016820;28;20057;-74
2023/07/13 02:17:22;;;;;;;9.73;0.60;;;16.10;99.90;;;;;;5016845;28;20021;-74
2023/07/13 02:19:48;;;;;;;9.82;0.47;;;16.00;99.90;;;;;;5016938;28;20031;-74
2023/07/13 02:22:14;;;;;;;5.97;0.75;;;16.00;99.90;;;;;;5017381;28;20030;-75
2023/07/13 02:24:39;;;;;;;9.95;0.75;;;16.00;99.90;;;;;;4999164;28;20030;-74
2023/07/13 02:27:05;;;;;;;5.60;0.40;;;16.00;99.90;;;;;;4999170;28;20056;-74
2023/07/13 02:29:31;;;;;;;4.13;0.63;;;15.90;99.90;;;;;;5016537;28;20033;-75
2023/07/13 02:31:56;;;;;;;6.82;0.28;;;15.90;99.90;;;;;;5016578;28;20033;-75
2023/07/13 02:34:22;;;;;;;2.08;0.30;;;15.90;99.90;;;;;;5016608;28;20025;-74
2023/07/13 02:36:47;;;;;;;3.70;0.15;;;15.90;99.90;;;;;;5016631;28;20030;-74
2023/07/13 02:39:16;;;;;;;5.30;0.75;;;15.90;99.90;;;;;;4998959;28;20030;-74
2023/07/13 02:41:42;;;;;;;10.02;0.90;;;15.90;99.90;;;;;;5016446;28;20018;-75
2023/07/13 02:44:08;;;;;;;4.78;0.10;;;15.90;99.90;;;;;;5015586;28;20083;-75
2023/07/13 02:46:36;;;;;;;5.05;0.95;;;16.10;99.90;;;;;;4997696;28;20026;-75
2023/07/13 02:49:02;;;;;;;4.47;0.17;;;15.80;99.90;;;;;;5015222;28;20022;-75
2023/07/13 02:51:28;;;;;;;9.30;0.93;;;15.80;99.90;;;;;;4997586;28;20057;-75
2023/07/13 02:53:53;;;;;;;5.32;0.75;;;15.70;99.90;;;;;;4997526;28;20060;-75
2023/07/13 02:56:23;;;;;;;10.57;0.88;;;15.70;99.90;;;;;;5015096;28;20022;-74
2023/07/13 02:58:49;;;;;;;14.82;1.55;;;15.70;99.90;;;;;;5015038;28;20026;-75
2023/07/13 03:01:18;;;;;;;8.75;0.25;;;15.70;99.90;;;;;;4997547;28;20018;-74
2023/07/13 03:03:47;;;;;;;6.00;0.63;;;15.70;99.90;;;;;;5014860;28;20018;-75
2023/07/13 03:06:14;;;;;;;3.88;0.10;;;15.70;99.90;;;;;;5015002;28;20481;-75
2023/07/13 03:08:40;;;;;;;10.75;0.40;;;15.70;99.90;;;;;;5014973;28;20025;-75
2023/07/13 03:11:08;;;;;;;8.30;0.35;;;16.30;99.90;;;;;;4997290;28;20022;-74
2023/07/13 03:13:34;;;;;;;6.25;0.35;;;15.70;99.90;;;;;;5014758;28;20068;-75
2023/07/13 03:16:00;;;;;;;4.80;0.30;;;15.60;99.90;;;;;;5014655;28;20026;-75
2023/07/13 03:18:27;;;;;;;9.52;0.20;;;15.60;99.90;;;;;;4997234;28;20087;-75
2023/07/13 03:20:53;;;;;;;6.53;0.70;;;15.60;99.90;;;;;;5014702;28;20101;-75
2023/07/13 03:23:20;;;;;;;7.82;0.70;;;15.60;99.90;;;;;;5014556;28;20120;-74
2023/07/13 03:25:46;;;;;;;3.25;0.40;;;15.60;99.90;;;;;;5014699;28;20030;-75
2023/07/13 03:28:12;;;;;;;8.93;0.60;;;15.70;99.90;;;;;;4997237;28;20117;-74
2023/07/13 03:30:38;;;;;;;3.72;0.40;;;15.60;99.90;;;;;;4996782;28;20022;-75
2023/07/13 03:33:04;;;;;;;2.75;0.20;;;15.70;99.90;;;;;;5014464;28;20029;-74
2023/07/13 03:35:29;;;;;;;5.28;0.52;;;15.70;99.90;;;;;;5014544;28;20056;-75
2023/07/13 03:37:55;;;;;;;9.73;0.10;;;15.70;99.90;;;;;;5014353;28;20030;-74
2023/07/13 03:40:20;;;;;;;6.07;1.25;;;15.70;99.90;;;;;;5014401;28;20064;-74
2023/07/13 03:45:25;;;;;;;4.75;0.80;;;15.70;99.90;;;;;;5071258;28;20391;-76
2023/07/13 03:47:51;;;;;;;9.60;1.08;;;15.80;99.90;;;;;;5069259;28;20546;-75
2023/07/13 03:50:16;;;;;;;13.75;0.30;;;15.70;99.90;;;;;;5070430;28;20013;-75
2023/07/13 03:52:42;;;;;;;6.57;0.45;;;15.70;99.90;;;;;;5069027;28;20037;-76
2023/07/13 03:55:08;;;;;;;7.28;0.75;;;15.60;99.90;;;;;;5050380;28;20112;-76
2023/07/13 03:57:34;;;;;;;6.38;0.98;;;15.60;99.90;;;;;;5050263;28;20100;-76
2023/07/13 04:00:00;;;;;;;6.65;0.17;;;15.70;99.90;;;;;;5048949;28;20438;-76
2023/07/13 04:02:26;;;;;;;7.10;0.60;;;15.70;99.90;;;;;;5065955;28;20057;-76
2023/07/13 04:04:52;;;;;;;8.32;1.08;;;15.70;99.90;;;;;;5050039;28;20014;-76
2023/07/13 04:07:18;;;;;;;10.98;1.05;;;15.70;99.90;;;;;;5050104;28;20017;-76
2023/07/13 04:09:44;;;;;;;5.03;0.52;;;15.60;99.90;;;;;;5050636;28;20026;-76
2023/07/13 04:12:09;;;;;;;6.90;0.55;;;15.60;99.90;;;;;;5050187;28;20374;-76
2023/07/13 04:14:35;;;;;;;15.57;0.77;;;15.70;99.90;;;;;;5048965;28;20030;-76
2023/07/13 04:17:01;;;;;;;13.07;1.98;;;15.70;99.90;;;;;;5050067;28;20104;-76
2023/07/13 04:19:26;;;;;;;6.85;1.27;;;15.70;99.90;;;;;;5065324;28;20067;-76
2023/07/13 04:21:52;;;;;;;8.48;0.98;;;15.70;99.90;;;;;;5049956;28;20025;-76
2023/07/13 04:24:18;;;;;;;5.40;0.40;;;15.80;99.90;;;;;;5049717;28;20439;-76
2023/07/13 04:26:43;;;;;;;12.00;1.27;;;16.00;99.90;;;;;;5049831;28;20485;-76
2023/07/13 04:29:09;;;;;;;10.27;1.35;;;15.80;99.90;;;;;;5049796;28;20021;-76
2023/07/13 04:31:34;;;;;;;12.85;1.35;;;16.00;99.90;;;;;;5050282;28;20052;-76
2023/07/13 04:34:00;;;;;;;9.20;1.58;;;15.80;99.90;;;;;;5049915;28;20401;-76
2023/07/13 04:36:26;;;;;;;9.85;1.63;;;15.80;99.90;;;;;;5049658;28;20087;-76
2023/07/13 04:38:53;;;;;;;12.95;1.23;;;15.80;99.90;;;;;;5048372;28;20018;-76
2023/07/13 04:41:20;;;;;;;8.15;1.02;;;15.90;99.90;;;;;;5049577;28;20392;-75
2023/07/13 04:43:46;;;;;;;7.05;1.58;;;15.90;99.90;;;;;;5049318;28;20029;-76
2023/07/13 04:46:13;;;;;;;8.73;1.00;;;16.00;99.90;;;;;;5049440;28;20093;-75
2023/07/13 04:48:39;;;;;;;10.15;1.00;;;16.00;99.90;;;;;;5049367;28;20094;-76
2023/07/13 04:51:06;;;;;;;20.55;1.35;;;16.00;99.90;;;;;;5049328;28;20092;-76
2023/07/13 04:53:32;;;;;;;7.97;1.67;;;16.30;99.90;;;;;;5064583;28;20036;-75
2023/07/13 04:55:58;;;;;;;16.17;2.15;;;16.10;99.90;;;;;;5055930;28;20029;-75
2023/07/13 04:58:24;;;;;;;20.88;1.45;;;16.20;99.90;;;;;;5034722;28;20485;-75
2023/07/13 05:00:50;;;;;;;12.65;1.40;;;16.20;99.90;;;;;;5051309;28;20507;-76
2023/07/13 05:03:16;;;;;;;12.95;1.75;;;16.30;99.90;;;;;;5034533;28;20021;-75
2023/07/13 05:05:41;;;;;;;12.25;1.63;;;16.40;99.90;;;;;;5034486;28;20024;-75
2023/07/13 05:08:07;;;;;;;14.60;1.90;;;16.40;99.90;;;;;;5035874;28;20492;-75
2023/07/13 05:10:33;;;;;;;16.83;1.45;;;16.50;99.90;;;;;;5035760;28;20032;-76
2023/07/13 05:12:59;;;;;;;11.77;1.23;;;16.60;99.90;;;;;;5035536;28;20021;-76
2023/07/13 05:15:25;;;;;;;8.57;1.50;;;16.60;99.90;;;;;;5035595;28;20052;-76
2023/07/13 05:17:51;;;;;;;10.52;1.48;;;16.70;99.90;;;;;;5034173;28;20026;-74
2023/07/13 05:20:17;;;;;;;7.50;1.92;;;16.70;99.90;;;;;;5050874;28;20033;-75
2023/07/13 05:22:43;;;;;;;7.68;2.10;;;16.60;99.90;;;;;;5050764;28;20053;-76
2023/07/13 05:25:09;;;;;;;7.78;1.60;;;16.70;99.90;;;;;;5035355;28;20417;-76
2023/07/13 05:27:35;;;;;;;8.85;1.05;;;16.70;99.90;;;;;;5035319;28;20036;-75
2023/07/13 05:30:02;;;;;;;9.35;0.98;;;16.70;99.90;;;;;;5035409;28;20473;-76
2023/07/13 05:32:27;;;;;;;11.88;2.05;;;16.80;99.90;;;;;;5035368;28;20393;-75
2023/07/13 05:34:53;;;;;;;14.50;2.92;;;16.90;99.90;;;;;;5035209;28;20026;-75
2023/07/13 05:37:19;;;;;;;8.65;1.73;;;16.90;99.90;;;;;;5035202;28;20063;-75
2023/07/13 05:39:44;;;;;;;19.95;2.60;;;16.90;99.90;;;;;;5033894;28;20029;-75
2023/07/13 05:42:10;;;;;;;8.27;1.85;;;17.00;99.90;;;;;;5050540;28;20052;-75
2023/07/13 05:44:35;;;;;;;15.30;2.10;;;17.10;99.90;;;;;;5034896;28;20029;-75
2023/07/13 05:47:01;;;;;;;12.65;2.10;;;16.90;99.90;;;;;;5050421;28;20029;-75
2023/07/13 05:49:27;;;;;;;15.07;2.80;;;17.20;99.90;;;;;;5035085;28;20022;-75
2023/07/13 05:51:52;;;;;;;9.38;1.65;;;17.30;99.90;;;;;;5035050;28;20025;-75
2023/07/13 05:54:18;;;;;;;9.82;2.38;;;17.40;99.90;;;;;;5034847;28;20028;-74
2023/07/13 05:56:43;;;;;;;5.80;1.33;;;17.50;99.90;;;;;;5035229;28;20055;-75
2023/07/13 05:59:09;;;;;;;11.75;1.80;;;17.60;99.90;;;;;;5034186;28;20030;-75
2023/07/13 06:01:35;;;;;;;6.72;1.25;;;18.30;99.90;;;;;;5033725;28;20029;-75
2023/07/13 06:04:01;;;;;;;9.88;1.48;;;17.60;99.90;;;;;;5049095;28;20018;-75
2023/07/13 06:06:27;;;;;;;10.15;1.90;;;17.70;99.90;;;;;;5033041;28;20036;-75
2023/07/13 06:08:52;;;;;;;11.43;1.25;;;17.80;99.90;;;;;;5048142;28;20024;-74
2023/07/13 06:11:21;;;;;;;15.68;2.15;;;17.80;99.90;;;;;;5034570;28;20404;-74
2023/07/13 06:13:47;;;;;;;8.93;1.42;;;17.90;99.90;;;;;;5034545;28;20025;-75
2023/07/13 06:16:13;;;;;;;7.45;1.50;;;18.00;99.90;;;;;;5049801;28;20027;-74
2023/07/13 06:18:40;;;;;;;12.82;2.15;;;18.10;99.90;;;;;;5049934;28;20021;-76
2023/07/13 06:21:11;;;;;;;9.00;0.98;;;18.20;99.90;;;;;;5049839;28;20464;-76
2023/07/13 06:23:37;;;;;;;14.98;1.88;;;18.30;99.90;;;;;;5049730;28;20037;-76
2023/07/13 06:26:04;;;;;;;16.67;2.10;;;18.40;99.90;;;;;;5034349;28;20498;-76
2023/07/13 06:28:31;;;;;;;20.60;2.88;;;18.30;99.90;;;;;;5034390;28;20013;-75
2023/07/13 06:30:57;;;;;;;10.95;1.35;;;18.40;99.90;;;;;;5034278;28;20028;-76
2023/07/13 06:33:23;;;;;;;11.57;2.40;;;18.50;99.90;;;;;;5049506;28;20485;-76
2023/07/13 06:35:48;;;;;;;12.85;2.22;;;18.70;99.90;;;;;;5034197;28;20139;-76
2023/07/13 06:38:14;;;;;;;13.82;2.05;;;18.80;99.90;;;;;;5034688;28;20029;-76
2023/07/13 06:40:39;;;;;;;12.02;1.92;;;18.80;99.90;;;;;;5033211;28;20116;-76
2023/07/13 06:43:05;;;;;;;7.18;1.83;;;18.90;99.90;;;;;;5033715;28;20104;-76
2023/07/13 06:45:40;;;;;;;11.35;2.80;;;18.90;99.90;;;;;;5034124;28;20026;-76
2023/07/13 06:48:05;;;;;;;15.52;3.10;;;19.10;99.90;;;;;;5033941;28;20468;-76
2023/07/13 06:50:31;;;;;;;26.92;3.97;;;19.50;99.90;;;;;;5033902;28;20112;-76
2023/07/13 06:52:56;;;;;;;10.57;1.90;;;19.50;99.90;;;;;;5032504;28;20017;-77
2023/07/13 06:55:22;;;;;;;12.50;2.95;;;19.50;99.90;;;;;;5033934;28;20065;-76
2023/07/13 06:57:48;;;;;;;10.82;2.10;;;19.50;99.90;;;;;;5034275;28;20552;-76
2023/07/13 07:00:14;;;;;;;9.85;3.53;;;19.40;99.90;;;;;;5032384;28;20025;-76
2023/07/13 07:02:39;;;;;;;11.85;3.47;;;19.10;99.90;;;;;;5034200;28;20048;-76
2023/07/13 07:05:05;;;;;;;10.38;2.50;;;18.90;99.90;;;;;;5033415;28;20025;-76
2023/07/13 07:07:31;;;;;;;13.98;3.85;;;18.60;99.90;;;;;;5032302;28;20017;-76
2023/07/13 07:09:56;;;;;;;11.32;1.63;;;18.40;99.90;;;;;;5033544;28;20021;-76
2023/07/13 07:12:22;;;;;;;10.93;2.30;;;18.40;99.90;;;;;;5034108;28;20017;-75
2023/07/13 07:14:47;;;;;;;7.20;1.88;;;18.00;99.90;;;;;;5033439;28;20489;-75
2023/07/13 07:17:13;;;;;;;8.40;1.38;;;17.80;99.90;;;;;;5032240;28;20104;-76
2023/07/13 07:19:38;;;;;;;6.72;0.50;;;17.70;99.90;;;;;;5033329;28;20033;-75
2023/07/13 07:22:04;;;;;;;3.75;0.85;;;17.50;99.90;;;;;;5033836;28;20410;-76
2023/07/13 07:24:29;;;;;;;4.75;1.23;;;17.50;99.90;;;;;;5033285;28;20029;-76
2023/07/13 07:26:55;;;;;;;8.77;1.35;;;17.40;99.90;;;;;;5033410;28;20051;-76
2023/07/13 07:29:22;;;;;;;3.17;1.08;;;17.40;99.90;;;;;;5033533;28;20022;-76
2023/07/13 07:31:47;;;;;;;9.23;1.35;;;17.50;99.90;;;;;;5033926;28;20025;-76
2023/07/13 07:34:13;;;;;;;7.45;1.25;;;17.50;99.90;;;;;;5033332;28;20033;-76
2023/07/13 07:36:38;;;;;;;6.60;1.20;;;17.60;99.90;;;;;;5049033;28;20022;-76
2023/07/13 07:39:04;;;;;;;6.53;2.03;;;17.60;99.90;;;;;;5048566;28;20078;-75
2023/07/13 07:41:30;;;;;;;6.28;1.70;;;17.70;99.90;;;;;;5033346;28;20018;-76
2023/07/13 07:43:56;;;;;;;6.07;1.83;;;17.90;99.90;;;;;;5031778;28;20032;-75
2023/07/13 07:46:21;;;;;;;6.22;1.55;;;18.00;99.90;;;;;;5048519;28;20440;-76
2023/07/13 07:48:47;;;;;;;6.47;1.40;;;18.10;99.90;;;;;;5033349;28;20048;-77
2023/07/13 07:51:12;;;;;;;5.15;1.33;;;18.20;99.90;;;;;;5033195;28;20022;-76
2023/07/13 07:53:38;;;;;;;6.68;1.70;;;18.20;99.90;;;;;;5032949;28;20092;-76
2023/07/13 07:56:03;;;;;;;10.30;2.65;;;18.20;99.90;;;;;;5033054;28;20028;-76
2023/07/13 07:58:29;;;;;;;5.60;1.63;;;18.50;99.90;;;;;;5033101;28;20029;-75
2023/07/13 08:01:02;;;;;;;14.52;2.33;;;18.70;99.90;;;;;;5032966;28;20026;-75
2023/07/13 08:03:28;;;;;;;10.68;2.40;;;18.80;99.90;;;;;;5048179;28;20028;-76
2023/07/13 08:05:54;;;;;;;9.23;2.55;;;18.90;99.90;;;;;;5032953;28;20030;-76
2023/07/13 08:08:19;;;;;;;9.98;2.10;;;19.20;99.90;;;;;;5033027;28;20101;-76
2023/07/13 08:10:44;;;;;;;8.27;1.98;;;19.40;99.90;;;;;;5032950;28;20107;-76
2023/07/13 08:13:10;;;;;;;9.13;1.60;;;19.50;99.90;;;;;;5032853;28;20501;-76
2023/07/13 08:15:37;;;;;;;7.47;2.28;;;20.50;99.90;;;;;;5033050;28;20105;-76
2023/07/13 08:18:03;;;;;;;6.47;1.85;;;19.80;99.90;;;;;;5033487;28;20014;-76
2023/07/13 08:20:28;;;;;;;9.95;1.73;;;19.90;99.90;;;;;;5032993;28;20029;-76
2023/07/13 08:22:54;;;;;;;6.05;1.30;;;19.90;99.90;;;;;;5033256;28;20092;-76
2023/07/13 08:25:20;;;;;;;3.17;1.02;;;19.90;99.90;;;;;;5032646;28;20116;-76
2023/07/13 08:27:46;;;;;;;2.72;0.25;;;19.80;99.90;;;;;;5032740;28;20021;-76
2023/07/13 08:30:12;;;;;;;0.88;0.40;;;19.70;99.90;;;;;;5031992;28;20032;-76
2023/07/13 08:32:37;;;;;;;0.80;0.20;;;19.50;99.90;;;;;;5036458;28;20105;-76
2023/07/13 08:35:04;;;;;;;4.10;0.30;;;19.30;99.90;;;;;;5036325;28;20417;-76
2023/07/13 08:37:30;;;;;;;2.45;0.32;;;19.10;99.90;;;;;;5037031;28;20032;-76
2023/07/13 08:39:56;;;;;;;1.90;0.20;;;18.80;99.90;;;;;;5051742;28;20120;-76
2023/07/13 08:42:44;;;;;;;1.08;0.40;;;19.20;99.90;;;;;;5036426;28;20040;-76
2023/07/13 08:45:27;;;;;;;1.80;0.00;;;18.30;99.90;;;;;;5034944;28;20030;-76
2023/07/13 08:48:08;;;;;;;2.33;0.00;;;18.20;99.90;;;;;;5036872;28;20025;-75
2023/07/13 08:50:46;;;;;;;2.20;0.17;;;17.90;99.90;;;;;;5036285;28;20017;-76
2023/07/13 08:53:13;;;;;;;6.43;0.63;;;17.80;99.90;;;;;;5036259;28;20100;-76
2023/07/13 08:55:39;;;;;;;4.63;1.08;;;17.60;99.90;;;;;;5036116;28;20427;-76
2023/07/13 08:58:12;;;;;;;5.10;1.17;;;17.50;99.90;;;;;;5036636;28;20148;-76
2023/07/13 09:01:00;;;;;;;0.95;0.25;;;17.40;99.90;;;;;;5036012;28;20018;-76
2023/07/13 09:03:29;;;;;;;;;;;17.50;99.90;;;;;;5025427;28;20091;-76
2023/07/13 09:05:58;;;;;;;2.17;0.38;;;17.70;99.90;;;;;;5035990;28;19905;-75
2023/07/13 09:08:58;;;;;;;2.80;0.32;;;17.90;99.90;;;;;;5036017;28;20033;-76
2023/07/13 09:11:39;;;;;;;1.75;0.20;;;18.20;99.90;;;;;;5035488;28;20041;-76
2023/07/13 09:14:41;;;;;;;2.88;0.32;;;18.50;99.90;;;;;;5036289;28;20473;-77
2023/07/13 09:17:25;;;;;;;3.85;0.77;;;18.80;99.90;;;;;;5036379;28;20013;-77
2023/07/13 09:20:13;;;;;;;2.28;0.45;;;19.20;99.90;;;;;;5036382;28;20101;-75
2023/07/13 09:22:40;;;;;;;3.30;0.73;;;19.80;99.90;;;;;;5034448;28;20032;-76
2023/07/13 09:25:23;;;;;;;7.20;1.27;;;20.00;99.90;;;;;;5035527;28;20393;-75
2023/07/13 09:27:51;;;;;;;3.22;0.30;;;20.10;99.90;;;;;;5034312;28;20021;-76
2023/07/13 09:30:37;;;;;;;2.60;0.40;;;20.00;99.90;;;;;;5034278;28;20021;-76
2023/07/13 09:33:04;;;;;;;7.97;1.10;;;19.70;99.90;;;;;;5035227;28;20108;-76
2023/07/13 09:35:30;;;;;;;5.57;0.30;;;19.00;99.90;;;;;;5035398;28;20444;-76
2023/07/13 09:38:11;;;;;;;6.45;0.28;;;18.40;99.90;;;;;;5035665;28;20130;-76
2023/07/13 09:40:48;;;;;;;1.67;0.10;;;17.90;99.90;;;;;;5035313;28;20028;-76
2023/07/13 09:43:16;;;;;;;0.70;0.10;;;17.40;99.90;;;;;;5034750;28;20063;-76
2023/07/13 09:45:45;;;;;;;1.30;0.10;;;17.20;99.90;;;;;;5050554;28;20029;-76
2023/07/13 09:48:14;;;;;;;1.90;0.10;;;17.30;99.90;;;;;;5035052;28;20104;-76
2023/07/13 09:50:41;;;;;;;2.30;0.10;;;17.40;99.90;;;;;;5035004;28;20089;-76
2023/07/13 09:53:18;;;;;;;5.63;0.52;;;17.50;99.90;;;;;;5035011;28;20030;-76
2023/07/13 09:55:47;;;;;;;3.20;0.50;;;18.00;99.90;;;;;;5035008;28;20025;-76
2023/07/13 09:58:19;;;;;;;4.45;0.65;;;18.50;99.90;;;;;;5034932;28;20429;-76
2023/07/13 10:00:58;;;;;;;5.22;0.70;;;18.90;99.90;;;;;;5034799;28;20056;-76
2023/07/13 10:03:32;;;;;;;2.75;0.52;;;19.30;99.90;;;;;;5034739;28;20110;-76
2023/07/13 10:06:10;;;;;;;4.40;0.80;;;19.20;99.90;;;;;;5035386;28;20457;-76
2023/07/13 10:08:36;;;;;;;6.03;1.23;;;19.30;99.90;;;;;;5034940;28;20021;-76
2023/07/13 10:11:17;;;;;;;2.10;0.82;;;19.50;99.90;;;;;;5033749;28;20068;-76
2023/07/13 10:13:55;;;;;;;3.38;0.70;;;20.00;99.90;;;;;;5035080;28;20034;-76
2023/07/13 10:16:22;;;;;;;5.50;0.50;;;20.20;99.90;;;;;;5049984;28;20037;-77
2023/07/13 10:19:25;;;;;;;5.20;1.27;;;20.20;99.90;;;;;;5034494;28;20112;-76
2023/07/13 10:21:56;;;;;;;3.90;0.50;;;19.90;99.90;;;;;;5029266;28;20041;-75
2023/07/13 10:24:24;;;;;;;2.67;0.47;;;19.80;99.90;;;;;;5049577;28;20392;-77
2023/07/13 10:27:10;;;;;;;2.60;1.02;;;19.80;99.90;;;;;;5035124;28;20022;-76
2023/07/13 10:30:08;;;;;;;4.78;1.13;;;19.90;99.90;;;;;;5049765;28;20056;-77
2023/07/13 10:32:34;;;;;;;;;;;19.90;99.90;;;;;;5034615;28;20049;-77
2023/07/13 10:35:01;;;;;;;3.13;0.73;;;20.10;99.90;;;;;;5034266;28;20291;-76
2023/07/13 10:37:30;;;;;;;4.22;0.85;;;20.50;99.90;;;;;;5034981;28;20025;-76
2023/07/13 10:39:57;;;;;;;2.78;0.30;;;20.90;99.90;;;;;;5034271;28;20025;-76
2023/07/13 10:42:33;;;;;;;2.15;0.35;;;21.20;99.90;;;;;;5049525;28;20023;-76
2023/07/13 10:44:59;;;;;;;2.67;0.60;;;21.50;99.90;;;;;;5032738;28;20029;-76
2023/07/13 10:47:25;;;;;;;2.72;0.20;;;21.20;99.90;;;;;;5034052;28;20030;-76
2023/07/13 10:49:55;;;;;;;1.10;0.20;;;21.20;99.90;;;;;;5034112;28;20396;-77
2023/07/13 10:52:42;;;;;;;0.75;0.10;;;21.10;99.90;;;;;;5032708;28;20024;-77
2023/07/13 10:55:31;;;;;;;2.25;0.17;;;21.00;99.90;;;;;;5034023;28;20033;-76
2023/07/13 10:58:01;;;;;;;1.38;0.40;;;20.90;99.90;;;;;;5034096;28;20018;-76
2023/07/13 11:00:27;;;;;;;3.92;0.30;;;20.90;99.90;;;;;;5033811;28;20063;-76
2023/07/13 11:03:00;;;;;;;2.58;0.43;;;21.40;99.90;;;;;;5048917;28;20481;-76
2023/07/13 11:05:27;;;;;;;3.85;0.40;;;21.40;99.90;;;;;;5033736;28;20029;-76
2023/07/13 11:08:02;;;;;;;3.22;0.22;;;22.10;99.90;;;;;;5032438;28;20048;-76
2023/07/13 11:10:51;;;;;;;3.17;0.35;;;22.50;99.90;;;;;;5033967;28;20030;-75
2023/07/13 11:13:37;;;;;;;4.30;0.70;;;22.60;99.90;;;;;;5033597;28;20496;-76
2023/07/13 11:16:13;;;;;;;3.45;0.40;;;22.30;99.90;;;;;;5034957;28;20030;-76
2023/07/13 11:18:39;;;;;;;3.65;0.55;;;22.00;99.90;;;;;;5032283;28;20491;-76
2023/07/13 11:21:30;;;;;;;2.90;0.35;;;21.60;99.90;;;;;;5034013;28;20021;-77
2023/07/13 11:24:28;;;;;;;4.55;0.43;;;21.60;99.90;;;;;;5029577;28;20044;-76
2023/07/13 11:26:56;;;;;;;;;;;22.00;99.90;;;;;;5029948;28;20473;-77
2023/07/13 11:29:39;;;;;;;3.75;0.32;;;22.20;99.90;;;;;;5033460;28;20040;-77
2023/07/13 11:32:26;;;;;;;4.57;0.30;;;21.90;99.90;;;;;;5032344;28;20546;-77
2023/07/13 11:34:53;;;;;;;2.38;0.20;;;21.70;99.90;;;;;;5033663;28;20026;-77
2023/07/13 11:37:20;;;;;;;2.60;0.43;;;21.60;99.90;;;;;;5033977;28;20105;-76
2023/07/13 11:39:48;;;;;;;4.30;0.32;;;21.20;99.90;;;;;;5048720;28;20025;-76
2023/07/13 11:42:16;;;;;;;13.77;0.33;;;21.10;99.90;;;;;;5033368;28;20119;-77
2023/07/13 11:44:43;;;;;;;;;;;20.80;99.90;;;;;;5033399;28;20044;-76
2023/07/13 11:47:16;;;;;;;3.80;0.45;;;20.60;99.90;;;;;;5033344;28;20004;-77
2023/07/13 11:49:46;;;;;;;2.72;0.10;;;20.50;99.90;;;;;;5033260;28;20025;-76
2023/07/13 11:52:19;;;;;;;2.58;0.20;;;20.50;99.90;;;;;;5033137;28;20053;-76
2023/07/13 11:54:58;;;;;;;2.33;0.22;;;20.50;99.90;;;;;;5033979;28;20038;-76
2023/07/13 11:57:33;;;;;;;3.25;0.40;;;20.50;99.90;;;;;;5031910;28;20021;-76
2023/07/13 12:00:10;;;;;;;6.85;0.30;;;20.50;99.90;;;;;;5048632;28;20045;-76
2023/07/13 12:02:40;;;;;;;1.52;0.30;;;20.40;99.90;;;;;;5033102;28;20032;-77
2023/07/13 12:05:09;;;;;;;2.33;0.22;;;20.50;99.90;;;;;;5033241;28;20396;-75
2023/07/13 12:07:38;;;;;;;2.45;0.20;;;20.90;99.90;;;;;;5052944;28;20020;-77
2023/07/13 12:10:21;;;;;;;3.97;0.13;;;21.60;99.90;;;;;;5037273;28;20495;-77
2023/07/13 12:12:53;;;;;;;1.75;0.40;;;21.70;99.90;;;;;;5037058;28;20033;-77
2023/07/13 12:15:19;;;;;;;2.58;0.47;;;21.70;99.90;;;;;;5052435;28;20029;-77
2023/07/13 12:17:46;;;;;;;2.38;0.10;;;21.80;99.90;;;;;;5052700;28;20104;-76
2023/07/13 12:20:36;;;;;;;3.22;0.35;;;22.10;99.90;;;;;;5052421;28;20048;-76
2023/07/13 12:23:05;;;;;;;1.98;0.70;;;22.70;99.90;;;;;;5034083;28;20040;-77
2023/07/13 12:25:35;;;;;;;3.13;0.50;;;23.00;99.90;;;;;;5036738;28;20021;-76
2023/07/13 12:28:20;;;;;;;5.22;0.52;;;23.10;99.90;;;;;;5037001;28;20033;-77
2023/07/13 12:30:48;;;;;;;2.38;0.32;;;23.00;99.90;;;;;;5035498;28;20026;-76
2023/07/13 12:33:14;;;;;;;2.53;0.08;;;22.90;99.90;;;;;;5036772;28;20017;-77
2023/07/13 12:35:48;;;;;;;1.27;0.22;;;23.10;99.90;;;;;;5035650;28;20024;-77
2023/07/13 12:38:16;;;;;;;3.15;0.20;;;23.20;99.90;;;;;;5036936;28;20024;-76
2023/07/13 12:40:42;;;;;;;2.53;0.33;;;23.30;99.90;;;;;;5036830;28;20489;-77
2023/07/13 12:43:12;;;;;;;4.05;0.30;;;23.40;99.90;;;;;;5051950;28;20050;-77
2023/07/13 12:45:38;;;;;;;1.48;0.30;;;23.20;99.90;;;;;;5051926;28;20048;-76
2023/07/13 12:48:13;;;;;;;5.78;0.88;;;23.20;99.90;;;;;;5036496;28;20057;-77
2023/07/13 12:50:46;;;;;;;1.73;0.47;;;23.10;99.90;;;;;;5037031;28;20029;-76
2023/07/13 12:53:19;;;;;;;2.00;0.10;;;22.90;99.90;;;;;;5036642;28;20067;-76
2023/07/13 12:55:50;;;;;;;1.90;0.00;;;23.10;99.90;;;;;;5036240;28;20044;-76
2023/07/13 12:58:30;;;;;;;3.03;0.20;;;23.60;99.90;;;;;;5051574;28;20444;-77